sensor_id;sensor_type;location;lat;lon;timestamp;P1;durP1;ratioP1;P2;durP2;ratioP2
14209;SDS011;7188;56.070;12.698;2022-10-31T00:03:45;42.57;;;21.43;;
14209;SDS011;7188;56.070;12.698;2022-10-31T00:06:12;33.47;;;18.77;;
14209;SDS011;7188;56.070;12.698;2022-10-31T00:08:38;43.60;;;21.60;;
14209;SDS011;7188;56.070;12.698;2022-10-31T00:11:10;39.93;;;20.33;;
14209;SDS011;7188;56.070;12.698;2022-10-31T00:13:35;42.17;;;20.47;;
14209;SDS011;7188;56.070;12.698;2022-10-31T00:16:01;37.43;;;19.57;;
14209;SDS011;7188;56.070;12.698;2022-10-31T00:18:27;42.27;;;20.37;;
14209;SDS011;7188;56.070;12.698;2022-10-31T00:20:59;37.37;;;20.10;;
14209;SDS011;7188;56.070;12.698;2022-10-31T00:23:26;38.27;;;20.40;;
14209;SDS011;7188;56.070;12.698;2022-10-31T00:25:51;45.90;;;21.23;;
14209;SDS011;7188;56.070;12.698;2022-10-31T00:28:17;36.40;;;18.93;;
14209;SDS011;7188;56.070;12.698;2022-10-31T00:30:43;34.93;;;19.03;;
14209;SDS011;7188;56.070;12.698;2022-10-31T00:33:08;45.83;;;22.00;;
14209;SDS011;7188;56.070;12.698;2022-10-31T00:35:34;44.40;;;22.13;;
14209;SDS011;7188;56.070;12.698;2022-10-31T00:38:15;42.70;;;21.57;;
14209;SDS011;7188;56.070;12.698;2022-10-31T00:40:40;50.80;;;22.17;;
14209;SDS011;7188;56.070;12.698;2022-10-31T00:43:06;49.43;;;23.07;;
14209;SDS011;7188;56.070;12.698;2022-10-31T00:45:31;48.23;;;22.57;;
14209;SDS011;7188;56.070;12.698;2022-10-31T00:47:57;44.53;;;22.67;;
14209;SDS011;7188;56.070;12.698;2022-10-31T00:50:23;49.70;;;22.03;;
14209;SDS011;7188;56.070;12.698;2022-10-31T00:52:48;49.87;;;24.27;;
14209;SDS011;7188;56.070;12.698;2022-10-31T00:55:14;50.37;;;23.50;;
14209;SDS011;7188;56.070;12.698;2022-10-31T00:57:39;56.70;;;25.97;;
14209;SDS011;7188;56.070;12.698;2022-10-31T01:00:05;52.30;;;23.50;;
14209;SDS011;7188;56.070;12.698;2022-10-31T01:02:31;49.20;;;23.80;;
14209;SDS011;7188;56.070;12.698;2022-10-31T01:04:57;57.90;;;25.43;;
14209;SDS011;7188;56.070;12.698;2022-10-31T01:07:22;58.20;;;24.27;;
14209;SDS011;7188;56.070;12.698;2022-10-31T01:09:48;56.83;;;24.83;;
14209;SDS011;7188;56.070;12.698;2022-10-31T01:12:14;53.30;;;24.20;;
14209;SDS011;7188;56.070;12.698;2022-10-31T01:14:44;45.97;;;21.20;;
14209;SDS011;7188;56.070;12.698;2022-10-31T01:17:10;45.97;;;22.43;;
14209;SDS011;7188;56.070;12.698;2022-10-31T01:19:36;53.67;;;23.57;;
14209;SDS011;7188;56.070;12.698;2022-10-31T01:22:02;56.03;;;23.93;;
14209;SDS011;7188;56.070;12.698;2022-10-31T01:24:27;63.80;;;25.60;;
14209;SDS011;7188;56.070;12.698;2022-10-31T01:26:53;57.53;;;24.47;;
14209;SDS011;7188;56.070;12.698;2022-10-31T01:29:18;52.67;;;22.03;;
14209;SDS011;7188;56.070;12.698;2022-10-31T01:31:44;65.87;;;26.30;;
14209;SDS011;7188;56.070;12.698;2022-10-31T01:34:13;50.37;;;23.67;;
14209;SDS011;7188;56.070;12.698;2022-10-31T01:36:41;62.10;;;25.87;;
14209;SDS011;7188;56.070;12.698;2022-10-31T01:39:08;49.50;;;22.97;;
14209;SDS011;7188;56.070;12.698;2022-10-31T01:41:36;56.53;;;24.30;;
14209;SDS011;7188;56.070;12.698;2022-10-31T01:46:40;55.90;;;24.23;;
14209;SDS011;7188;56.070;12.698;2022-10-31T01:49:10;52.97;;;23.20;;
14209;SDS011;7188;56.070;12.698;2022-10-31T01:51:49;54.40;;;22.73;;
14209;SDS011;7188;56.070;12.698;2022-10-31T01:54:20;56.73;;;23.67;;
14209;SDS011;7188;56.070;12.698;2022-10-31T01:56:49;47.97;;;21.80;;
14209;SDS011;7188;56.070;12.698;2022-10-31T01:59:19;55.00;;;22.50;;
14209;SDS011;7188;56.070;12.698;2022-10-31T02:01:47;63.73;;;24.67;;
14209;SDS011;7188;56.070;12.698;2022-10-31T02:04:15;51.83;;;24.07;;
14209;SDS011;7188;56.070;12.698;2022-10-31T02:06:43;56.13;;;24.07;;
14209;SDS011;7188;56.070;12.698;2022-10-31T02:09:13;49.07;;;21.63;;
14209;SDS011;7188;56.070;12.698;2022-10-31T02:11:40;51.53;;;23.57;;
14209;SDS011;7188;56.070;12.698;2022-10-31T02:14:07;51.17;;;21.67;;
14209;SDS011;7188;56.070;12.698;2022-10-31T02:16:32;52.87;;;22.10;;
14209;SDS011;7188;56.070;12.698;2022-10-31T02:18:58;53.00;;;23.87;;
14209;SDS011;7188;56.070;12.698;2022-10-31T02:32:38;50.00;;;22.67;;
14209;SDS011;7188;56.070;12.698;2022-10-31T02:37:38;47.90;;;21.53;;
14209;SDS011;7188;56.070;12.698;2022-10-31T02:40:22;52.67;;;22.07;;
14209;SDS011;7188;56.070;12.698;2022-10-31T02:45:38;46.23;;;20.77;;
14209;SDS011;7188;56.070;12.698;2022-10-31T02:48:26;47.10;;;19.33;;
14209;SDS011;7188;56.070;12.698;2022-10-31T02:50:57;44.13;;;20.90;;
14209;SDS011;7188;56.070;12.698;2022-10-31T02:53:25;47.33;;;21.70;;
14209;SDS011;7188;56.070;12.698;2022-10-31T02:55:56;46.13;;;21.27;;
14209;SDS011;7188;56.070;12.698;2022-10-31T02:58:36;34.93;;;20.20;;
14209;SDS011;7188;56.070;12.698;2022-10-31T03:07:18;42.23;;;20.47;;
14209;SDS011;7188;56.070;12.698;2022-10-31T03:12:58;44.80;;;21.53;;
14209;SDS011;7188;56.070;12.698;2022-10-31T03:15:34;43.43;;;21.73;;
14209;SDS011;7188;56.070;12.698;2022-10-31T03:18:10;41.17;;;21.37;;
14209;SDS011;7188;56.070;12.698;2022-10-31T03:20:48;48.70;;;22.07;;
14209;SDS011;7188;56.070;12.698;2022-10-31T03:23:19;36.10;;;19.33;;
14209;SDS011;7188;56.070;12.698;2022-10-31T03:25:47;39.47;;;18.60;;
14209;SDS011;7188;56.070;12.698;2022-10-31T03:28:14;42.57;;;21.27;;
14209;SDS011;7188;56.070;12.698;2022-10-31T03:30:43;43.40;;;21.03;;
14209;SDS011;7188;56.070;12.698;2022-10-31T03:33:12;39.97;;;20.17;;
14209;SDS011;7188;56.070;12.698;2022-10-31T03:35:43;34.77;;;19.40;;
14209;SDS011;7188;56.070;12.698;2022-10-31T03:38:11;39.30;;;20.93;;
14209;SDS011;7188;56.070;12.698;2022-10-31T03:40:40;46.33;;;22.37;;
14209;SDS011;7188;56.070;12.698;2022-10-31T03:43:13;39.83;;;21.17;;
14209;SDS011;7188;56.070;12.698;2022-10-31T03:45:45;40.30;;;22.37;;
14209;SDS011;7188;56.070;12.698;2022-10-31T03:48:15;39.37;;;20.37;;
14209;SDS011;7188;56.070;12.698;2022-10-31T03:53:32;37.33;;;21.00;;
14209;SDS011;7188;56.070;12.698;2022-10-31T03:56:19;44.73;;;23.17;;
14209;SDS011;7188;56.070;12.698;2022-10-31T03:59:08;47.63;;;23.93;;
14209;SDS011;7188;56.070;12.698;2022-10-31T04:01:39;32.27;;;20.07;;
14209;SDS011;7188;56.070;12.698;2022-10-31T04:04:09;44.00;;;23.03;;
14209;SDS011;7188;56.070;12.698;2022-10-31T04:06:36;40.20;;;22.33;;
14209;SDS011;7188;56.070;12.698;2022-10-31T04:09:04;43.80;;;22.80;;
14209;SDS011;7188;56.070;12.698;2022-10-31T04:11:33;40.23;;;21.43;;
14209;SDS011;7188;56.070;12.698;2022-10-31T04:14:01;41.07;;;21.37;;
14209;SDS011;7188;56.070;12.698;2022-10-31T04:16:29;41.83;;;20.80;;
14209;SDS011;7188;56.070;12.698;2022-10-31T04:18:55;39.83;;;21.77;;
14209;SDS011;7188;56.070;12.698;2022-10-31T04:21:26;45.13;;;24.17;;
14209;SDS011;7188;56.070;12.698;2022-10-31T04:23:58;42.77;;;23.07;;
14209;SDS011;7188;56.070;12.698;2022-10-31T04:26:24;44.57;;;22.47;;
14209;SDS011;7188;56.070;12.698;2022-10-31T04:28:49;40.27;;;22.43;;
14209;SDS011;7188;56.070;12.698;2022-10-31T04:31:15;39.70;;;22.80;;
14209;SDS011;7188;56.070;12.698;2022-10-31T04:33:41;37.10;;;19.90;;
14209;SDS011;7188;56.070;12.698;2022-10-31T04:36:07;38.77;;;22.00;;
14209;SDS011;7188;56.070;12.698;2022-10-31T04:38:33;45.63;;;24.00;;
14209;SDS011;7188;56.070;12.698;2022-10-31T04:40:58;45.10;;;22.60;;
14209;SDS011;7188;56.070;12.698;2022-10-31T04:43:24;46.73;;;23.40;;
14209;SDS011;7188;56.070;12.698;2022-10-31T04:45:50;40.13;;;22.93;;
14209;SDS011;7188;56.070;12.698;2022-10-31T04:48:16;47.93;;;25.90;;
14209;SDS011;7188;56.070;12.698;2022-10-31T04:50:41;44.43;;;24.03;;
14209;SDS011;7188;56.070;12.698;2022-10-31T04:53:07;47.70;;;23.53;;
14209;SDS011;7188;56.070;12.698;2022-10-31T04:55:34;52.60;;;26.27;;
14209;SDS011;7188;56.070;12.698;2022-10-31T04:58:00;51.80;;;24.80;;
14209;SDS011;7188;56.070;12.698;2022-10-31T05:00:26;47.77;;;24.53;;
14209;SDS011;7188;56.070;12.698;2022-10-31T05:02:52;56.77;;;25.57;;
14209;SDS011;7188;56.070;12.698;2022-10-31T05:05:20;52.00;;;24.80;;
14209;SDS011;7188;56.070;12.698;2022-10-31T05:07:48;53.53;;;27.53;;
14209;SDS011;7188;56.070;12.698;2022-10-31T05:10:17;43.10;;;22.20;;
14209;SDS011;7188;56.070;12.698;2022-10-31T05:12:45;51.80;;;26.20;;
14209;SDS011;7188;56.070;12.698;2022-10-31T05:15:15;46.73;;;24.43;;
14209;SDS011;7188;56.070;12.698;2022-10-31T05:17:42;53.57;;;26.83;;
14209;SDS011;7188;56.070;12.698;2022-10-31T05:20:08;53.63;;;25.80;;
14209;SDS011;7188;56.070;12.698;2022-10-31T05:22:35;54.83;;;25.60;;
14209;SDS011;7188;56.070;12.698;2022-10-31T05:25:00;53.20;;;26.80;;
14209;SDS011;7188;56.070;12.698;2022-10-31T05:27:26;55.27;;;25.63;;
14209;SDS011;7188;56.070;12.698;2022-10-31T05:29:52;64.83;;;30.37;;
14209;SDS011;7188;56.070;12.698;2022-10-31T05:32:17;59.80;;;28.70;;
14209;SDS011;7188;56.070;12.698;2022-10-31T05:34:43;63.03;;;27.90;;
14209;SDS011;7188;56.070;12.698;2022-10-31T05:37:08;56.67;;;28.17;;
14209;SDS011;7188;56.070;12.698;2022-10-31T05:39:34;58.97;;;28.47;;
14209;SDS011;7188;56.070;12.698;2022-10-31T05:41:59;54.50;;;27.90;;
14209;SDS011;7188;56.070;12.698;2022-10-31T05:44:25;50.40;;;27.23;;
14209;SDS011;7188;56.070;12.698;2022-10-31T05:46:50;54.40;;;27.67;;
14209;SDS011;7188;56.070;12.698;2022-10-31T05:49:25;52.60;;;28.10;;
14209;SDS011;7188;56.070;12.698;2022-10-31T05:51:51;57.47;;;27.53;;
14209;SDS011;7188;56.070;12.698;2022-10-31T05:54:16;57.13;;;29.53;;
14209;SDS011;7188;56.070;12.698;2022-10-31T05:56:42;53.83;;;26.67;;
14209;SDS011;7188;56.070;12.698;2022-10-31T05:59:07;58.60;;;28.50;;
14209;SDS011;7188;56.070;12.698;2022-10-31T06:01:33;58.03;;;29.00;;
14209;SDS011;7188;56.070;12.698;2022-10-31T06:03:58;50.67;;;26.67;;
14209;SDS011;7188;56.070;12.698;2022-10-31T06:06:24;50.93;;;27.30;;
14209;SDS011;7188;56.070;12.698;2022-10-31T06:08:50;57.40;;;29.13;;
14209;SDS011;7188;56.070;12.698;2022-10-31T06:11:15;52.23;;;27.27;;
14209;SDS011;7188;56.070;12.698;2022-10-31T06:13:41;61.97;;;30.43;;
14209;SDS011;7188;56.070;12.698;2022-10-31T06:16:06;56.53;;;27.80;;
14209;SDS011;7188;56.070;12.698;2022-10-31T06:18:32;53.60;;;28.83;;
14209;SDS011;7188;56.070;12.698;2022-10-31T06:20:57;58.50;;;29.80;;
14209;SDS011;7188;56.070;12.698;2022-10-31T06:23:23;50.93;;;28.17;;
14209;SDS011;7188;56.070;12.698;2022-10-31T06:25:49;62.20;;;31.27;;
14209;SDS011;7188;56.070;12.698;2022-10-31T06:28:15;51.03;;;27.80;;
14209;SDS011;7188;56.070;12.698;2022-10-31T06:30:41;51.50;;;28.77;;
14209;SDS011;7188;56.070;12.698;2022-10-31T06:33:06;64.63;;;30.27;;
14209;SDS011;7188;56.070;12.698;2022-10-31T06:35:32;53.33;;;29.40;;
14209;SDS011;7188;56.070;12.698;2022-10-31T06:37:58;56.30;;;29.43;;
14209;SDS011;7188;56.070;12.698;2022-10-31T06:40:23;56.33;;;29.93;;
14209;SDS011;7188;56.070;12.698;2022-10-31T06:42:59;58.53;;;29.77;;
14209;SDS011;7188;56.070;12.698;2022-10-31T06:45:25;52.93;;;29.07;;
14209;SDS011;7188;56.070;12.698;2022-10-31T06:47:52;57.93;;;29.40;;
14209;SDS011;7188;56.070;12.698;2022-10-31T06:50:18;59.73;;;29.43;;
14209;SDS011;7188;56.070;12.698;2022-10-31T06:52:49;54.27;;;30.03;;
14209;SDS011;7188;56.070;12.698;2022-10-31T06:55:19;58.20;;;30.17;;
14209;SDS011;7188;56.070;12.698;2022-10-31T07:00:17;53.13;;;27.23;;
14209;SDS011;7188;56.070;12.698;2022-10-31T07:02:43;59.87;;;30.60;;
14209;SDS011;7188;56.070;12.698;2022-10-31T07:05:08;49.37;;;28.07;;
14209;SDS011;7188;56.070;12.698;2022-10-31T07:07:34;60.40;;;30.03;;
14209;SDS011;7188;56.070;12.698;2022-10-31T07:09:59;58.27;;;29.73;;
14209;SDS011;7188;56.070;12.698;2022-10-31T07:12:25;54.93;;;29.53;;
14209;SDS011;7188;56.070;12.698;2022-10-31T07:14:50;54.70;;;27.43;;
14209;SDS011;7188;56.070;12.698;2022-10-31T07:17:16;56.07;;;28.13;;
14209;SDS011;7188;56.070;12.698;2022-10-31T07:19:41;58.00;;;28.43;;
14209;SDS011;7188;56.070;12.698;2022-10-31T07:22:07;59.27;;;28.43;;
14209;SDS011;7188;56.070;12.698;2022-10-31T07:24:33;60.57;;;29.00;;
14209;SDS011;7188;56.070;12.698;2022-10-31T07:26:58;53.10;;;27.37;;
14209;SDS011;7188;56.070;12.698;2022-10-31T07:29:24;52.83;;;26.17;;
14209;SDS011;7188;56.070;12.698;2022-10-31T07:31:49;69.03;;;30.70;;
14209;SDS011;7188;56.070;12.698;2022-10-31T07:34:15;69.37;;;29.03;;
14209;SDS011;7188;56.070;12.698;2022-10-31T07:36:40;58.03;;;28.37;;
14209;SDS011;7188;56.070;12.698;2022-10-31T07:39:06;55.17;;;25.00;;
14209;SDS011;7188;56.070;12.698;2022-10-31T07:41:31;59.53;;;29.03;;
14209;SDS011;7188;56.070;12.698;2022-10-31T07:43:57;60.20;;;28.07;;
14209;SDS011;7188;56.070;12.698;2022-10-31T07:46:23;57.03;;;26.50;;
14209;SDS011;7188;56.070;12.698;2022-10-31T07:48:48;51.13;;;25.53;;
14209;SDS011;7188;56.070;12.698;2022-10-31T07:51:14;52.03;;;25.93;;
14209;SDS011;7188;56.070;12.698;2022-10-31T07:53:39;64.57;;;29.33;;
14209;SDS011;7188;56.070;12.698;2022-10-31T07:56:05;57.63;;;27.13;;
14209;SDS011;7188;56.070;12.698;2022-10-31T07:58:31;57.27;;;26.10;;
14209;SDS011;7188;56.070;12.698;2022-10-31T08:00:57;52.70;;;26.17;;
14209;SDS011;7188;56.070;12.698;2022-10-31T08:03:23;56.13;;;27.67;;
14209;SDS011;7188;56.070;12.698;2022-10-31T08:05:48;59.00;;;26.57;;
14209;SDS011;7188;56.070;12.698;2022-10-31T08:08:14;55.40;;;27.67;;
14209;SDS011;7188;56.070;12.698;2022-10-31T08:10:41;58.00;;;27.80;;
14209;SDS011;7188;56.070;12.698;2022-10-31T08:13:11;48.63;;;24.83;;
14209;SDS011;7188;56.070;12.698;2022-10-31T08:15:38;52.20;;;24.90;;
14209;SDS011;7188;56.070;12.698;2022-10-31T08:18:06;47.90;;;25.27;;
14209;SDS011;7188;56.070;12.698;2022-10-31T08:20:39;45.40;;;23.33;;
14209;SDS011;7188;56.070;12.698;2022-10-31T08:23:05;46.50;;;23.13;;
14209;SDS011;7188;56.070;12.698;2022-10-31T08:25:32;45.60;;;24.33;;
14209;SDS011;7188;56.070;12.698;2022-10-31T08:27:59;47.47;;;24.60;;
14209;SDS011;7188;56.070;12.698;2022-10-31T08:30:34;45.60;;;24.47;;
14209;SDS011;7188;56.070;12.698;2022-10-31T08:35:31;55.73;;;25.67;;
14209;SDS011;7188;56.070;12.698;2022-10-31T08:37:58;54.40;;;24.80;;
14209;SDS011;7188;56.070;12.698;2022-10-31T08:40:25;56.03;;;24.60;;
14209;SDS011;7188;56.070;12.698;2022-10-31T08:42:55;61.60;;;27.53;;
14209;SDS011;7188;56.070;12.698;2022-10-31T08:45:22;56.83;;;26.07;;
14209;SDS011;7188;56.070;12.698;2022-10-31T08:47:47;66.33;;;28.20;;
14209;SDS011;7188;56.070;12.698;2022-10-31T08:50:13;53.60;;;26.60;;
14209;SDS011;7188;56.070;12.698;2022-10-31T08:52:38;57.23;;;26.87;;
14209;SDS011;7188;56.070;12.698;2022-10-31T08:55:04;65.03;;;28.30;;
14209;SDS011;7188;56.070;12.698;2022-10-31T08:57:30;59.50;;;25.47;;
14209;SDS011;7188;56.070;12.698;2022-10-31T08:59:56;59.20;;;26.03;;
14209;SDS011;7188;56.070;12.698;2022-10-31T09:02:21;56.40;;;26.07;;
14209;SDS011;7188;56.070;12.698;2022-10-31T09:04:47;59.10;;;25.83;;
14209;SDS011;7188;56.070;12.698;2022-10-31T09:07:12;59.10;;;25.93;;
14209;SDS011;7188;56.070;12.698;2022-10-31T09:09:38;51.87;;;26.27;;
14209;SDS011;7188;56.070;12.698;2022-10-31T09:12:04;56.57;;;27.10;;
14209;SDS011;7188;56.070;12.698;2022-10-31T09:14:29;51.70;;;25.20;;
14209;SDS011;7188;56.070;12.698;2022-10-31T09:16:55;62.07;;;27.13;;
14209;SDS011;7188;56.070;12.698;2022-10-31T09:19:20;55.93;;;25.10;;
14209;SDS011;7188;56.070;12.698;2022-10-31T09:21:46;48.87;;;23.57;;
14209;SDS011;7188;56.070;12.698;2022-10-31T09:24:12;49.10;;;25.40;;
14209;SDS011;7188;56.070;12.698;2022-10-31T09:26:37;54.27;;;23.77;;
14209;SDS011;7188;56.070;12.698;2022-10-31T09:29:03;52.73;;;26.37;;
14209;SDS011;7188;56.070;12.698;2022-10-31T09:31:29;49.90;;;24.17;;
14209;SDS011;7188;56.070;12.698;2022-10-31T09:33:55;44.23;;;21.40;;
14209;SDS011;7188;56.070;12.698;2022-10-31T09:36:20;49.67;;;21.23;;
14209;SDS011;7188;56.070;12.698;2022-10-31T09:38:46;47.70;;;21.80;;
14209;SDS011;7188;56.070;12.698;2022-10-31T09:44:14;43.53;;;21.90;;
14209;SDS011;7188;56.070;12.698;2022-10-31T09:46:50;47.70;;;21.60;;
14209;SDS011;7188;56.070;12.698;2022-10-31T09:52:11;49.60;;;19.87;;
14209;SDS011;7188;56.070;12.698;2022-10-31T09:54:50;45.07;;;20.27;;
14209;SDS011;7188;56.070;12.698;2022-10-31T09:57:23;45.87;;;20.40;;
14209;SDS011;7188;56.070;12.698;2022-10-31T10:00:14;46.73;;;18.70;;
14209;SDS011;7188;56.070;12.698;2022-10-31T10:27:17;23.33;;;13.27;;
14209;SDS011;7188;56.070;12.698;2022-10-31T10:32:34;23.47;;;12.10;;
14209;SDS011;7188;56.070;12.698;2022-10-31T10:35:29;21.03;;;11.43;;
14209;SDS011;7188;56.070;12.698;2022-10-31T10:38:02;20.87;;;12.40;;
14209;SDS011;7188;56.070;12.698;2022-10-31T10:40:29;18.23;;;11.87;;
14209;SDS011;7188;56.070;12.698;2022-10-31T10:45:51;13.33;;;9.07;;
14209;SDS011;7188;56.070;12.698;2022-10-31T10:48:44;15.13;;;8.67;;
14209;SDS011;7188;56.070;12.698;2022-10-31T10:52:07;13.33;;;9.37;;
14209;SDS011;7188;56.070;12.698;2022-10-31T10:56:58;15.43;;;9.60;;
14209;SDS011;7188;56.070;12.698;2022-10-31T10:59:28;17.23;;;10.70;;
14209;SDS011;7188;56.070;12.698;2022-10-31T11:01:55;17.80;;;10.37;;
14209;SDS011;7188;56.070;12.698;2022-10-31T11:04:38;12.60;;;9.00;;
14209;SDS011;7188;56.070;12.698;2022-10-31T11:07:07;12.07;;;8.13;;
14209;SDS011;7188;56.070;12.698;2022-10-31T11:09:34;15.67;;;9.10;;
14209;SDS011;7188;56.070;12.698;2022-10-31T11:12:10;15.53;;;7.97;;
14209;SDS011;7188;56.070;12.698;2022-10-31T11:15:06;13.90;;;8.07;;
14209;SDS011;7188;56.070;12.698;2022-10-31T11:17:47;10.53;;;6.33;;
14209;SDS011;7188;56.070;12.698;2022-10-31T11:22:41;9.67;;;6.87;;
14209;SDS011;7188;56.070;12.698;2022-10-31T11:28:03;13.57;;;7.50;;
14209;SDS011;7188;56.070;12.698;2022-10-31T11:30:35;9.57;;;5.50;;
14209;SDS011;7188;56.070;12.698;2022-10-31T11:33:19;8.30;;;5.77;;
14209;SDS011;7188;56.070;12.698;2022-10-31T11:35:53;11.43;;;5.37;;
14209;SDS011;7188;56.070;12.698;2022-10-31T11:38:21;10.57;;;5.90;;
14209;SDS011;7188;56.070;12.698;2022-10-31T11:40:58;6.60;;;5.50;;
14209;SDS011;7188;56.070;12.698;2022-10-31T11:43:30;6.30;;;5.13;;
14209;SDS011;7188;56.070;12.698;2022-10-31T11:45:57;10.80;;;5.40;;
14209;SDS011;7188;56.070;12.698;2022-10-31T11:48:23;12.70;;;5.33;;
14209;SDS011;7188;56.070;12.698;2022-10-31T11:50:51;5.77;;;5.17;;
14209;SDS011;7188;56.070;12.698;2022-10-31T11:53:25;8.77;;;5.27;;
14209;SDS011;7188;56.070;12.698;2022-10-31T11:58:39;6.23;;;4.97;;
14209;SDS011;7188;56.070;12.698;2022-10-31T12:01:05;8.30;;;4.97;;
14209;SDS011;7188;56.070;12.698;2022-10-31T12:03:48;6.73;;;4.10;;
14209;SDS011;7188;56.070;12.698;2022-10-31T12:06:41;6.13;;;4.13;;
14209;SDS011;7188;56.070;12.698;2022-10-31T12:09:15;7.33;;;3.83;;
14209;SDS011;7188;56.070;12.698;2022-10-31T12:14:43;3.70;;;2.53;;
14209;SDS011;7188;56.070;12.698;2022-10-31T12:17:16;4.67;;;2.60;;
14209;SDS011;7188;56.070;12.698;2022-10-31T12:22:32;4.97;;;3.30;;
14209;SDS011;7188;56.070;12.698;2022-10-31T12:30:54;3.53;;;2.80;;
14209;SDS011;7188;56.070;12.698;2022-10-31T12:33:43;2.80;;;2.20;;
14209;SDS011;7188;56.070;12.698;2022-10-31T12:45:00;5.23;;;2.00;;
14209;SDS011;7188;56.070;12.698;2022-10-31T13:01:21;6.80;;;2.87;;
14209;SDS011;7188;56.070;12.698;2022-10-31T13:04:05;9.73;;;2.00;;
14209;SDS011;7188;56.070;12.698;2022-10-31T13:06:49;5.43;;;2.10;;
14209;SDS011;7188;56.070;12.698;2022-10-31T13:09:22;3.10;;;1.63;;
14209;SDS011;7188;56.070;12.698;2022-10-31T13:11:58;5.00;;;1.43;;
14209;SDS011;7188;56.070;12.698;2022-10-31T13:16:57;2.90;;;1.60;;
14209;SDS011;7188;56.070;12.698;2022-10-31T13:19:27;2.73;;;1.80;;
14209;SDS011;7188;56.070;12.698;2022-10-31T13:22:16;4.77;;;1.30;;
14209;SDS011;7188;56.070;12.698;2022-10-31T13:27:42;2.97;;;1.30;;
14209;SDS011;7188;56.070;12.698;2022-10-31T13:30:36;4.10;;;1.33;;
14209;SDS011;7188;56.070;12.698;2022-10-31T13:35:54;2.57;;;1.37;;
14209;SDS011;7188;56.070;12.698;2022-10-31T13:38:52;2.53;;;1.13;;
14209;SDS011;7188;56.070;12.698;2022-10-31T13:41:40;2.53;;;1.40;;
14209;SDS011;7188;56.070;12.698;2022-10-31T13:44:24;2.63;;;1.50;;
14209;SDS011;7188;56.070;12.698;2022-10-31T13:46:55;2.33;;;0.93;;
14209;SDS011;7188;56.070;12.698;2022-10-31T13:57:06;5.87;;;1.87;;
14209;SDS011;7188;56.070;12.698;2022-10-31T13:59:45;4.43;;;1.60;;
14209;SDS011;7188;56.070;12.698;2022-10-31T14:02:14;5.97;;;1.80;;
14209;SDS011;7188;56.070;12.698;2022-10-31T14:07:11;2.40;;;1.20;;
14209;SDS011;7188;56.070;12.698;2022-10-31T14:12:34;6.57;;;1.40;;
14209;SDS011;7188;56.070;12.698;2022-10-31T14:15:20;3.17;;;1.30;;
14209;SDS011;7188;56.070;12.698;2022-10-31T14:23:10;5.00;;;1.83;;
14209;SDS011;7188;56.070;12.698;2022-10-31T14:26:05;3.13;;;1.40;;
14209;SDS011;7188;56.070;12.698;2022-10-31T14:28:45;6.20;;;2.00;;
14209;SDS011;7188;56.070;12.698;2022-10-31T14:45:22;3.07;;;1.73;;
14209;SDS011;7188;56.070;12.698;2022-10-31T14:51:12;4.83;;;1.80;;
14209;SDS011;7188;56.070;12.698;2022-10-31T14:53:54;2.70;;;1.83;;
14209;SDS011;7188;56.070;12.698;2022-10-31T14:56:31;5.93;;;2.27;;
14209;SDS011;7188;56.070;12.698;2022-10-31T14:59:00;3.40;;;1.67;;
14209;SDS011;7188;56.070;12.698;2022-10-31T15:01:30;2.00;;;1.83;;
14209;SDS011;7188;56.070;12.698;2022-10-31T15:04:00;3.30;;;1.77;;
14209;SDS011;7188;56.070;12.698;2022-10-31T15:07:12;1.50;;;1.43;;
14209;SDS011;7188;56.070;12.698;2022-10-31T15:09:40;1.60;;;1.30;;
14209;SDS011;7188;56.070;12.698;2022-10-31T15:12:31;3.50;;;1.87;;
14209;SDS011;7188;56.070;12.698;2022-10-31T15:15:13;3.03;;;1.80;;
14209;SDS011;7188;56.070;12.698;2022-10-31T15:17:48;5.63;;;1.50;;
14209;SDS011;7188;56.070;12.698;2022-10-31T15:20:18;3.73;;;1.70;;
14209;SDS011;7188;56.070;12.698;2022-10-31T15:22:46;5.03;;;1.90;;
14209;SDS011;7188;56.070;12.698;2022-10-31T15:25:20;2.40;;;1.50;;
14209;SDS011;7188;56.070;12.698;2022-10-31T15:27:50;6.43;;;1.63;;
14209;SDS011;7188;56.070;12.698;2022-10-31T15:30:27;2.20;;;1.50;;
14209;SDS011;7188;56.070;12.698;2022-10-31T15:32:54;3.63;;;1.90;;
14209;SDS011;7188;56.070;12.698;2022-10-31T15:35:24;1.83;;;1.40;;
14209;SDS011;7188;56.070;12.698;2022-10-31T15:37:54;3.90;;;1.43;;
14209;SDS011;7188;56.070;12.698;2022-10-31T15:40:22;5.20;;;1.67;;
14209;SDS011;7188;56.070;12.698;2022-10-31T15:43:22;3.23;;;1.43;;
14209;SDS011;7188;56.070;12.698;2022-10-31T15:45:41;5.07;;;1.73;;
14209;SDS011;7188;56.070;12.698;2022-10-31T15:48:18;3.23;;;1.50;;
14209;SDS011;7188;56.070;12.698;2022-10-31T15:50:49;3.80;;;1.50;;
14209;SDS011;7188;56.070;12.698;2022-10-31T15:53:22;2.97;;;1.23;;
14209;SDS011;7188;56.070;12.698;2022-10-31T15:55:55;6.03;;;1.53;;
14209;SDS011;7188;56.070;12.698;2022-10-31T15:58:26;4.43;;;1.23;;
14209;SDS011;7188;56.070;12.698;2022-10-31T16:00:59;2.50;;;1.63;;
14209;SDS011;7188;56.070;12.698;2022-10-31T16:03:29;3.10;;;1.60;;
14209;SDS011;7188;56.070;12.698;2022-10-31T16:05:58;4.87;;;1.83;;
14209;SDS011;7188;56.070;12.698;2022-10-31T16:11:00;5.37;;;2.10;;
14209;SDS011;7188;56.070;12.698;2022-10-31T16:13:41;4.10;;;1.83;;
14209;SDS011;7188;56.070;12.698;2022-10-31T16:16:18;3.83;;;2.20;;
14209;SDS011;7188;56.070;12.698;2022-10-31T16:18:45;3.17;;;2.40;;
14209;SDS011;7188;56.070;12.698;2022-10-31T16:21:11;4.10;;;2.80;;
14209;SDS011;7188;56.070;12.698;2022-10-31T16:23:43;6.27;;;2.17;;
14209;SDS011;7188;56.070;12.698;2022-10-31T16:26:12;4.63;;;2.50;;
14209;SDS011;7188;56.070;12.698;2022-10-31T16:28:50;8.33;;;2.60;;
14209;SDS011;7188;56.070;12.698;2022-10-31T16:31:25;3.60;;;2.47;;
14209;SDS011;7188;56.070;12.698;2022-10-31T16:36:42;4.13;;;2.30;;
14209;SDS011;7188;56.070;12.698;2022-10-31T16:39:08;4.97;;;2.63;;
14209;SDS011;7188;56.070;12.698;2022-10-31T16:41:34;2.67;;;1.87;;
14209;SDS011;7188;56.070;12.698;2022-10-31T16:44:06;4.50;;;2.00;;
14209;SDS011;7188;56.070;12.698;2022-10-31T16:46:46;4.87;;;2.70;;
14209;SDS011;7188;56.070;12.698;2022-10-31T16:49:12;3.77;;;2.20;;
14209;SDS011;7188;56.070;12.698;2022-10-31T16:51:38;6.87;;;3.10;;
14209;SDS011;7188;56.070;12.698;2022-10-31T16:54:03;4.00;;;2.13;;
14209;SDS011;7188;56.070;12.698;2022-10-31T16:56:30;5.53;;;1.97;;
14209;SDS011;7188;56.070;12.698;2022-10-31T16:58:57;3.23;;;1.97;;
14209;SDS011;7188;56.070;12.698;2022-10-31T17:01:24;5.07;;;2.83;;
14209;SDS011;7188;56.070;12.698;2022-10-31T17:03:49;8.90;;;3.83;;
14209;SDS011;7188;56.070;12.698;2022-10-31T17:06:15;4.23;;;2.60;;
14209;SDS011;7188;56.070;12.698;2022-10-31T17:08:41;4.67;;;3.10;;
14209;SDS011;7188;56.070;12.698;2022-10-31T17:11:08;6.90;;;2.87;;
14209;SDS011;7188;56.070;12.698;2022-10-31T17:13:41;3.63;;;2.30;;
14209;SDS011;7188;56.070;12.698;2022-10-31T17:16:07;6.00;;;2.43;;
14209;SDS011;7188;56.070;12.698;2022-10-31T17:18:32;10.00;;;3.00;;
14209;SDS011;7188;56.070;12.698;2022-10-31T17:20:59;17.17;;;10.70;;
14209;SDS011;7188;56.070;12.698;2022-10-31T17:23:27;8.17;;;4.33;;
14209;SDS011;7188;56.070;12.698;2022-10-31T17:25:54;9.90;;;2.83;;
14209;SDS011;7188;56.070;12.698;2022-10-31T17:28:20;5.83;;;3.00;;
14209;SDS011;7188;56.070;12.698;2022-10-31T17:30:46;5.90;;;2.80;;
14209;SDS011;7188;56.070;12.698;2022-10-31T17:33:12;6.50;;;3.30;;
14209;SDS011;7188;56.070;12.698;2022-10-31T17:35:39;6.53;;;4.80;;